sensor_id;sensor_type;location;lat;lon;timestamp;pressure;altitude;pressure_sealevel;temperature;humidity
23253;BME280;11795;47.054;15.408;2022-11-15T00:00:00;97650;;;8.8;95.8
23253;BME280;11795;47.054;15.408;2022-11-15T00:02:00;97650;;;8.9;95.4
23253;BME280;11795;47.054;15.408;2022-11-15T00:04:00;97650;;;8.7;95.9
23253;BME280;11795;47.054;15.408;2022-11-15T00:06:02;97640;;;8.9;96.1
23253;BME280;11795;47.054;15.408;2022-11-15T00:08:00;97640;;;8.8;96.2
23253;BME280;11795;47.054;15.408;2022-11-15T00:10:00;97640;;;8.7;96.7
23253;BME280;11795;47.054;15.408;2022-11-15T00:12:00;97640;;;8.9;96.2
23253;BME280;11795;47.054;15.408;2022-11-15T00:14:02;97640;;;8.8;96.3
23253;BME280;11795;47.054;15.408;2022-11-15T00:16:01;97640;;;8.9;96.3
23253;BME280;11795;47.054;15.408;2022-11-15T00:18:00;97630;;;8.8;96.2
23253;BME280;11795;47.054;15.408;2022-11-15T00:20:00;97630;;;8.8;96.5
23253;BME280;11795;47.054;15.408;2022-11-15T00:22:00;97630;;;8.9;96.1
23253;BME280;11795;47.054;15.408;2022-11-15T00:24:00;97630;;;8.7;96.3
23253;BME280;11795;47.054;15.408;2022-11-15T00:26:01;97640;;;9.0;95.2
23253;BME280;11795;47.054;15.408;2022-11-15T00:28:00;97640;;;8.8;95.1
23253;BME280;11795;47.054;15.408;2022-11-15T00:30:00;97640;;;8.7;95.7
23253;BME280;11795;47.054;15.408;2022-11-15T00:32:00;97640;;;8.9;95.3
23253;BME280;11795;47.054;15.408;2022-11-15T00:34:00;97640;;;8.7;95.6
23253;BME280;11795;47.054;15.408;2022-11-15T00:36:01;97640;;;9.0;95.7
23253;BME280;11795;47.054;15.408;2022-11-15T00:38:01;97630;;;8.8;95.4
23253;BME280;11795;47.054;15.408;2022-11-15T00:40:00;97640;;;8.8;95.8
23253;BME280;11795;47.054;15.408;2022-11-15T00:42:00;97630;;;8.9;95.3
23253;BME280;11795;47.054;15.408;2022-11-15T00:44:00;97630;;;8.8;95.6
23253;BME280;11795;47.054;15.408;2022-11-15T00:46:00;97630;;;9.0;95.7
23253;BME280;11795;47.054;15.408;2022-11-15T00:48:00;97620;;;8.8;95.5
23253;BME280;11795;47.054;15.408;2022-11-15T00:50:00;97620;;;8.8;95.8
23253;BME280;11795;47.054;15.408;2022-11-15T00:52:00;97620;;;8.9;95.2
23253;BME280;11795;47.054;15.408;2022-11-15T00:54:00;97620;;;8.8;95.5
23253;BME280;11795;47.054;15.408;2022-11-15T00:56:00;97620;;;9.1;95.3
23253;BME280;11795;47.054;15.408;2022-11-15T00:58:00;97610;;;8.9;95.1
23253;BME280;11795;47.054;15.408;2022-11-15T01:00:00;97610;;;8.8;95.4
23253;BME280;11795;47.054;15.408;2022-11-15T01:02:01;97610;;;8.9;94.9
23253;BME280;11795;47.054;15.408;2022-11-15T01:04:01;97610;;;8.8;95.3
23253;BME280;11795;47.054;15.408;2022-11-15T01:06:00;97600;;;9.0;95.3
23253;BME280;11795;47.054;15.408;2022-11-15T01:08:11;97590;;;8.9;95.0
23253;BME280;11795;47.054;15.408;2022-11-15T01:10:00;97590;;;8.8;95.4
23253;BME280;11795;47.054;15.408;2022-11-15T01:12:00;97590;;;9.0;94.8
23253;BME280;11795;47.054;15.408;2022-11-15T01:14:00;97590;;;8.9;95.1
23253;BME280;11795;47.054;15.408;2022-11-15T01:16:06;97580;;;9.0;95.1
23253;BME280;11795;47.054;15.408;2022-11-15T01:18:00;97580;;;8.9;94.8
23253;BME280;11795;47.054;15.408;2022-11-15T01:20:00;97580;;;8.9;95.2
23253;BME280;11795;47.054;15.408;2022-11-15T01:22:00;97580;;;9.0;94.6
23253;BME280;11795;47.054;15.408;2022-11-15T01:24:00;97580;;;8.9;94.9
23253;BME280;11795;47.054;15.408;2022-11-15T01:26:01;97580;;;9.1;94.9
23253;BME280;11795;47.054;15.408;2022-11-15T01:28:00;97580;;;8.9;94.5
23253;BME280;11795;47.054;15.408;2022-11-15T01:30:00;97580;;;8.9;95.0
23253;BME280;11795;47.054;15.408;2022-11-15T01:32:00;97590;;;9.0;94.4
23253;BME280;11795;47.054;15.408;2022-11-15T01:34:00;97590;;;8.9;94.8
23253;BME280;11795;47.054;15.408;2022-11-15T01:36:03;97590;;;9.1;94.6
23253;BME280;11795;47.054;15.408;2022-11-15T01:38:00;97580;;;8.9;94.3
23253;BME280;11795;47.054;15.408;2022-11-15T01:40:00;97580;;;8.9;94.8
23253;BME280;11795;47.054;15.408;2022-11-15T01:42:00;97580;;;9.0;94.2
23253;BME280;11795;47.054;15.408;2022-11-15T01:46:02;97580;;;9.0;94.8
23253;BME280;11795;47.054;15.408;2022-11-15T01:48:00;97580;;;8.9;94.5
23253;BME280;11795;47.054;15.408;2022-11-15T01:50:06;97590;;;8.9;94.7
23253;BME280;11795;47.054;15.408;2022-11-15T01:52:02;97580;;;9.0;94.0
23253;BME280;11795;47.054;15.408;2022-11-15T01:54:04;97580;;;8.8;94.4
23253;BME280;11795;47.054;15.408;2022-11-15T01:56:02;97580;;;9.0;94.7
23253;BME280;11795;47.054;15.408;2022-11-15T01:58:02;97580;;;8.9;94.7
23253;BME280;11795;47.054;15.408;2022-11-15T02:00:03;97570;;;8.8;95.0
23253;BME280;11795;47.054;15.408;2022-11-15T02:02:00;97570;;;8.9;94.3
23253;BME280;11795;47.054;15.408;2022-11-15T02:04:04;97570;;;8.8;94.8
23253;BME280;11795;47.054;15.408;2022-11-15T02:06:01;97570;;;8.9;94.9
23253;BME280;11795;47.054;15.408;2022-11-15T02:08:00;97570;;;8.9;94.6
23253;BME280;11795;47.054;15.408;2022-11-15T02:10:06;97560;;;8.8;95.0
23253;BME280;11795;47.054;15.408;2022-11-15T02:12:00;97560;;;8.9;94.5
23253;BME280;11795;47.054;15.408;2022-11-15T02:14:01;97560;;;8.8;94.8
23253;BME280;11795;47.054;15.408;2022-11-15T02:16:06;97550;;;8.9;94.8
23253;BME280;11795;47.054;15.408;2022-11-15T02:18:08;97560;;;8.8;94.4
23253;BME280;11795;47.054;15.408;2022-11-15T02:20:20;97550;;;8.8;94.9
23253;BME280;11795;47.054;15.408;2022-11-15T02:22:10;97550;;;8.9;94.4
23253;BME280;11795;47.054;15.408;2022-11-15T02:26:16;97550;;;8.9;94.7
23253;BME280;11795;47.054;15.408;2022-11-15T02:28:16;97550;;;8.9;94.2
23253;BME280;11795;47.054;15.408;2022-11-15T02:30:13;97550;;;8.7;94.7
23253;BME280;11795;47.054;15.408;2022-11-15T02:32:05;97540;;;8.9;94.3
23253;BME280;11795;47.054;15.408;2022-11-15T02:34:05;97540;;;8.7;94.6
23253;BME280;11795;47.054;15.408;2022-11-15T02:36:02;97540;;;8.8;95.0
23253;BME280;11795;47.054;15.408;2022-11-15T02:38:06;97540;;;8.7;94.9
23253;BME280;11795;47.054;15.408;2022-11-15T02:40:07;97550;;;8.7;95.4
23253;BME280;11795;47.054;15.408;2022-11-15T02:42:02;97540;;;8.8;94.8
23253;BME280;11795;47.054;15.408;2022-11-15T02:44:03;97550;;;8.7;95.1
23253;BME280;11795;47.054;15.408;2022-11-15T02:46:06;97540;;;8.8;95.3
23253;BME280;11795;47.054;15.408;2022-11-15T02:48:00;97550;;;8.8;94.9
23253;BME280;11795;47.054;15.408;2022-11-15T02:50:02;97540;;;8.7;95.4
23253;BME280;11795;47.054;15.408;2022-11-15T02:52:00;97540;;;8.8;94.8
23253;BME280;11795;47.054;15.408;2022-11-15T02:54:00;97530;;;8.7;95.1
23253;BME280;11795;47.054;15.408;2022-11-15T02:56:01;97530;;;8.8;95.3
23253;BME280;11795;47.054;15.408;2022-11-15T02:58:15;97530;;;8.8;94.9
23253;BME280;11795;47.054;15.408;2022-11-15T03:00:05;97520;;;8.7;95.5
23253;BME280;11795;47.054;15.408;2022-11-15T03:02:10;97530;;;8.8;94.9
23253;BME280;11795;47.054;15.408;2022-11-15T03:04:10;97530;;;8.7;95.3
23253;BME280;11795;47.054;15.408;2022-11-15T03:06:07;97530;;;8.8;95.4
23253;BME280;11795;47.054;15.408;2022-11-15T03:08:04;97520;;;8.9;94.6
23253;BME280;11795;47.054;15.408;2022-11-15T03:10:05;97520;;;8.7;94.4
23253;BME280;11795;47.054;15.408;2022-11-15T03:12:05;97520;;;8.8;94.2
23253;BME280;11795;47.054;15.408;2022-11-15T03:14:05;97520;;;8.6;94.8
23253;BME280;11795;47.054;15.408;2022-11-15T03:16:03;97520;;;8.8;94.7
23253;BME280;11795;47.054;15.408;2022-11-15T03:18:02;97510;;;8.6;94.5
23253;BME280;11795;47.054;15.408;2022-11-15T03:20:03;97510;;;8.5;95.2
23253;BME280;11795;47.054;15.408;2022-11-15T03:22:03;97510;;;8.7;95.1
23253;BME280;11795;47.054;15.408;2022-11-15T03:24:03;97510;;;8.6;95.5
23253;BME280;11795;47.054;15.408;2022-11-15T03:26:00;97510;;;8.6;95.9
23253;BME280;11795;47.054;15.408;2022-11-15T03:28:03;97510;;;8.6;95.5
23253;BME280;11795;47.054;15.408;2022-11-15T03:30:02;97510;;;8.6;95.9
23253;BME280;11795;47.054;15.408;2022-11-15T03:32:04;97500;;;8.8;95.4
23253;BME280;11795;47.054;15.408;2022-11-15T03:34:04;97500;;;8.6;95.6
23253;BME280;11795;47.054;15.408;2022-11-15T03:36:00;97500;;;8.7;95.9
23253;BME280;11795;47.054;15.408;2022-11-15T03:38:05;97490;;;8.7;95.4
23253;BME280;11795;47.054;15.408;2022-11-15T03:40:00;97500;;;8.6;95.8
23253;BME280;11795;47.054;15.408;2022-11-15T03:42:10;97490;;;8.8;95.3
23253;BME280;11795;47.054;15.408;2022-11-15T03:44:06;97500;;;8.7;95.5
23253;BME280;11795;47.054;15.408;2022-11-15T03:46:01;97500;;;8.6;95.7
23253;BME280;11795;47.054;15.408;2022-11-15T03:48:03;97490;;;8.6;95.3
23253;BME280;11795;47.054;15.408;2022-11-15T03:50:03;97500;;;8.5;95.8
23253;BME280;11795;47.054;15.408;2022-11-15T03:52:01;97500;;;8.8;95.2
23253;BME280;11795;47.054;15.408;2022-11-15T03:54:02;97490;;;8.6;95.3
23253;BME280;11795;47.054;15.408;2022-11-15T03:56:00;97490;;;8.6;95.8
23253;BME280;11795;47.054;15.408;2022-11-15T03:58:00;97490;;;8.6;95.3
23253;BME280;11795;47.054;15.408;2022-11-15T04:00:00;97490;;;8.5;95.7
23253;BME280;11795;47.054;15.408;2022-11-15T04:02:00;97480;;;8.7;95.3
23253;BME280;11795;47.054;15.408;2022-11-15T04:04:00;97480;;;8.6;95.3
23253;BME280;11795;47.054;15.408;2022-11-15T04:06:00;97490;;;8.6;95.2
23253;BME280;11795;47.054;15.408;2022-11-15T04:08:00;97490;;;8.6;94.9
23253;BME280;11795;47.054;15.408;2022-11-15T04:10:04;97490;;;8.5;95.9
23253;BME280;11795;47.054;15.408;2022-11-15T04:12:00;97490;;;8.6;95.4
23253;BME280;11795;47.054;15.408;2022-11-15T04:14:00;97490;;;8.5;95.8
23253;BME280;11795;47.054;15.408;2022-11-15T04:16:00;97490;;;8.5;96.2
23253;BME280;11795;47.054;15.408;2022-11-15T04:18:00;97490;;;8.5;95.8
23253;BME280;11795;47.054;15.408;2022-11-15T04:20:12;97490;;;8.5;96.0
23253;BME280;11795;47.054;15.408;2022-11-15T04:22:10;97480;;;8.5;95.8
23253;BME280;11795;47.054;15.408;2022-11-15T04:24:10;97480;;;8.4;96.2
23253;BME280;11795;47.054;15.408;2022-11-15T04:26:02;97470;;;8.4;96.7
23253;BME280;11795;47.054;15.408;2022-11-15T04:28:00;97470;;;8.4;96.1
23253;BME280;11795;47.054;15.408;2022-11-15T04:30:00;97470;;;8.4;96.7
23253;BME280;11795;47.054;15.408;2022-11-15T04:32:00;97470;;;8.5;96.3
23253;BME280;11795;47.054;15.408;2022-11-15T04:34:00;97460;;;8.4;96.5
23253;BME280;11795;47.054;15.408;2022-11-15T04:36:10;97460;;;8.4;96.8
23253;BME280;11795;47.054;15.408;2022-11-15T04:38:01;97460;;;8.5;96.2
23253;BME280;11795;47.054;15.408;2022-11-15T04:40:00;97450;;;8.4;96.4
23253;BME280;11795;47.054;15.408;2022-11-15T04:42:00;97450;;;8.5;96.0
23253;BME280;11795;47.054;15.408;2022-11-15T04:44:00;97450;;;8.4;96.3
23253;BME280;11795;47.054;15.408;2022-11-15T04:46:00;97450;;;8.4;96.8
23253;BME280;11795;47.054;15.408;2022-11-15T04:48:00;97440;;;8.4;96.0
23253;BME280;11795;47.054;15.408;2022-11-15T04:50:00;97440;;;8.3;96.5
23253;BME280;11795;47.054;15.408;2022-11-15T04:52:00;97440;;;8.5;96.2
23253;BME280;11795;47.054;15.408;2022-11-15T04:54:00;97440;;;8.4;96.5
23253;BME280;11795;47.054;15.408;2022-11-15T04:56:00;97440;;;8.4;96.9
23253;BME280;11795;47.054;15.408;2022-11-15T04:58:01;97440;;;8.5;96.1
23253;BME280;11795;47.054;15.408;2022-11-15T05:00:01;97440;;;8.4;96.5
23253;BME280;11795;47.054;15.408;2022-11-15T05:02:00;97430;;;8.6;96.2
23253;BME280;11795;47.054;15.408;2022-11-15T05:04:10;97430;;;8.4;96.5
23253;BME280;11795;47.054;15.408;2022-11-15T05:06:00;97430;;;8.4;96.8
23253;BME280;11795;47.054;15.408;2022-11-15T05:08:00;97430;;;8.5;96.3
23253;BME280;11795;47.054;15.408;2022-11-15T05:10:00;97430;;;8.4;96.7
23253;BME280;11795;47.054;15.408;2022-11-15T05:12:00;97420;;;8.6;96.3
23253;BME280;11795;47.054;15.408;2022-11-15T05:14:00;97420;;;8.5;96.5
23253;BME280;11795;47.054;15.408;2022-11-15T05:16:00;97420;;;8.4;96.8
23253;BME280;11795;47.054;15.408;2022-11-15T05:18:00;97410;;;8.5;96.2
23253;BME280;11795;47.054;15.408;2022-11-15T05:20:00;97420;;;8.4;96.6
23253;BME280;11795;47.054;15.408;2022-11-15T05:22:00;97420;;;8.6;96.2
23253;BME280;11795;47.054;15.408;2022-11-15T05:24:00;97410;;;8.5;96.2
23253;BME280;11795;47.054;15.408;2022-11-15T05:26:01;97410;;;8.4;96.6
23253;BME280;11795;47.054;15.408;2022-11-15T05:28:00;97410;;;8.6;95.9
23253;BME280;11795;47.054;15.408;2022-11-15T05:30:00;97410;;;8.5;96.2
23253;BME280;11795;47.054;15.408;2022-11-15T05:32:00;97410;;;8.7;95.7
23253;BME280;11795;47.054;15.408;2022-11-15T05:34:00;97410;;;8.5;95.9
23253;BME280;11795;47.054;15.408;2022-11-15T05:36:04;97410;;;8.5;96.2
23253;BME280;11795;47.054;15.408;2022-11-15T05:38:00;97410;;;8.6;95.4
23253;BME280;11795;47.054;15.408;2022-11-15T05:40:00;97410;;;8.4;95.6
23253;BME280;11795;47.054;15.408;2022-11-15T05:42:05;97400;;;8.6;95.5
23253;BME280;11795;47.054;15.408;2022-11-15T05:44:01;97400;;;8.6;95.3
23253;BME280;11795;47.054;15.408;2022-11-15T05:46:00;97410;;;8.5;96.0
23253;BME280;11795;47.054;15.408;2022-11-15T05:48:01;97410;;;8.6;95.5
23253;BME280;11795;47.054;15.408;2022-11-15T05:50:00;97410;;;8.4;96.2
23253;BME280;11795;47.054;15.408;2022-11-15T05:52:02;97420;;;8.5;96.6
23253;BME280;11795;47.054;15.408;2022-11-15T05:54:01;97420;;;8.4;97.0
23253;BME280;11795;47.054;15.408;2022-11-15T05:56:01;97420;;;8.3;97.7
23253;BME280;11795;47.054;15.408;2022-11-15T05:58:00;97420;;;8.4;97.3
23253;BME280;11795;47.054;15.408;2022-11-15T06:00:01;97420;;;8.3;98.3
23253;BME280;11795;47.054;15.408;2022-11-15T06:02:00;97420;;;8.6;97.7
23253;BME280;11795;47.054;15.408;2022-11-15T06:04:00;97420;;;8.5;97.7
23253;BME280;11795;47.054;15.408;2022-11-15T06:06:00;97430;;;8.3;98.4
23253;BME280;11795;47.054;15.408;2022-11-15T06:08:00;97430;;;8.5;98.2
23253;BME280;11795;47.054;15.408;2022-11-15T06:10:00;97430;;;8.3;98.7
23253;BME280;11795;47.054;15.408;2022-11-15T06:12:00;97430;;;8.5;98.6
23253;BME280;11795;47.054;15.408;2022-11-15T06:14:00;97430;;;8.4;99.1
23253;BME280;11795;47.054;15.408;2022-11-15T06:16:00;97430;;;8.3;99.8
23253;BME280;11795;47.054;15.408;2022-11-15T06:18:01;97430;;;8.4;99.3
23253;BME280;11795;47.054;15.408;2022-11-15T06:20:00;97440;;;8.3;99.8
23253;BME280;11795;47.054;15.408;2022-11-15T06:22:00;97430;;;8.4;100.0
23253;BME280;11795;47.054;15.408;2022-11-15T06:24:00;97440;;;8.2;100.0
23253;BME280;11795;47.054;15.408;2022-11-15T06:26:01;97440;;;8.3;100.0
23253;BME280;11795;47.054;15.408;2022-11-15T06:28:00;97440;;;8.4;100.0
23253;BME280;11795;47.054;15.408;2022-11-15T06:30:00;97440;;;8.2;100.0
23253;BME280;11795;47.054;15.408;2022-11-15T06:32:00;97450;;;8.3;100.0
23253;BME280;11795;47.054;15.408;2022-11-15T06:34:00;97450;;;8.2;100.0
23253;BME280;11795;47.054;15.408;2022-11-15T06:36:02;97450;;;8.2;100.0
23253;BME280;11795;47.054;15.408;2022-11-15T06:38:03;97450;;;8.4;100.0
23253;BME280;11795;47.054;15.408;2022-11-15T06:40:00;97450;;;8.3;100.0
23253;BME280;11795;47.054;15.408;2022-11-15T06:42:00;97450;;;8.4;100.0
23253;BME280;11795;47.054;15.408;2022-11-15T06:44:00;97450;;;8.3;100.0
23253;BME280;11795;47.054;15.408;2022-11-15T06:46:00;97450;;;8.2;100.0
23253;BME280;11795;47.054;15.408;2022-11-15T06:48:00;97450;;;8.3;100.0
23253;BME280;11795;47.054;15.408;2022-11-15T06:50:00;97450;;;8.2;100.0
23253;BME280;11795;47.054;15.408;2022-11-15T06:52:00;97450;;;8.4;100.0
23253;BME280;11795;47.054;15.408;2022-11-15T06:54:00;97460;;;8.3;100.0
23253;BME280;11795;47.054;15.408;2022-11-15T06:56:03;97450;;;8.2;100.0
23253;BME280;11795;47.054;15.408;2022-11-15T06:58:00;97450;;;8.4;100.0
23253;BME280;11795;47.054;15.408;2022-11-15T07:00:00;97450;;;8.3;100.0
23253;BME280;11795;47.054;15.408;2022-11-15T07:02:00;97450;;;8.5;100.0
23253;BME280;11795;47.054;15.408;2022-11-15T07:04:00;97450;;;8.4;100.0
23253;BME280;11795;47.054;15.408;2022-11-15T07:06:00;97440;;;8.4;100.0
23253;BME280;11795;47.054;15.408;2022-11-15T07:08:00;97440;;;8.5;100.0
23253;BME280;11795;47.054;15.408;2022-11-15T07:10:00;97440;;;8.4;100.0
23253;BME280;11795;47.054;15.408;2022-11-15T07:12:00;97440;;;8.6;100.0
23253;BME280;11795;47.054;15.408;2022-11-15T07:14:00;97440;;;8.5;100.0
23253;BME280;11795;47.054;15.408;2022-11-15T07:16:01;97440;;;8.5;100.0
23253;BME280;11795;47.054;15.408;2022-11-15T07:18:00;97440;;;8.7;100.0
23253;BME280;11795;47.054;15.408;2022-11-15T07:20:00;97440;;;8.6;100.0
23253;BME280;11795;47.054;15.408;2022-11-15T07:22:00;97440;;;8.7;100.0
23253;BME280;11795;47.054;15.408;2022-11-15T07:24:00;97430;;;8.6;100.0
23253;BME280;11795;47.054;15.408;2022-11-15T07:26:00;97430;;;8.5;100.0
23253;BME280;11795;47.054;15.408;2022-11-15T07:28:00;97430;;;8.7;100.0
23253;BME280;11795;47.054;15.408;2022-11-15T07:30:01;97430;;;8.6;100.0
23253;BME280;11795;47.054;15.408;2022-11-15T07:32:00;97430;;;8.8;100.0
23253;BME280;11795;47.054;15.408;2022-11-15T07:34:00;97430;;;8.7;100.0
23253;BME280;11795;47.054;15.408;2022-11-15T07:36:02;97430;;;8.6;100.0
23253;BME280;11795;47.054;15.408;2022-11-15T07:38:02;97420;;;8.8;100.0
23253;BME280;11795;47.054;15.408;2022-11-15T07:40:00;97420;;;8.7;100.0
23253;BME280;11795;47.054;15.408;2022-11-15T07:42:10;97420;;;8.9;100.0
23253;BME280;11795;47.054;15.408;2022-11-15T07:44:00;97420;;;8.8;99.8
23253;BME280;11795;47.054;15.408;2022-11-15T07:46:04;97410;;;8.8;100.0
23253;BME280;11795;47.054;15.408;2022-11-15T07:48:00;97410;;;8.9;99.3
23253;BME280;11795;47.054;15.408;2022-11-15T07:50:00;97410;;;8.9;99.6
23253;BME280;11795;47.054;15.408;2022-11-15T07:52:00;97410;;;9.1;99.2
23253;BME280;11795;47.054;15.408;2022-11-15T07:54:00;97410;;;8.9;98.7
23253;BME280;11795;47.054;15.408;2022-11-15T07:56:00;97410;;;8.9;99.0
23253;BME280;11795;47.054;15.408;2022-11-15T07:58:01;97410;;;9.0;98.1
23253;BME280;11795;47.054;15.408;2022-11-15T08:00:00;97410;;;8.9;98.3
23253;BME280;11795;47.054;15.408;2022-11-15T08:02:00;97410;;;9.2;98.3
23253;BME280;11795;47.054;15.408;2022-11-15T08:04:00;97410;;;9.0;97.9
23253;BME280;11795;47.054;15.408;2022-11-15T08:06:00;97410;;;9.0;98.0
23253;BME280;11795;47.054;15.408;2022-11-15T08:08:00;97410;;;9.1;97.3
23253;BME280;11795;47.054;15.408;2022-11-15T08:10:01;97420;;;9.0;97.2
23253;BME280;11795;47.054;15.408;2022-11-15T08:12:00;97420;;;9.2;97.3
23253;BME280;11795;47.054;15.408;2022-11-15T08:14:01;97420;;;9.1;97.0
23253;BME280;11795;47.054;15.408;2022-11-15T08:16:01;97410;;;9.1;97.5
23253;BME280;11795;47.054;15.408;2022-11-15T08:18:03;97410;;;9.2;96.2
23253;BME280;11795;47.054;15.408;2022-11-15T08:20:00;97410;;;9.1;96.4
23253;BME280;11795;47.054;15.408;2022-11-15T08:22:00;97410;;;9.2;96.2
23253;BME280;11795;47.054;15.408;2022-11-15T08:24:00;97410;;;9.1;95.8
23253;BME280;11795;47.054;15.408;2022-11-15T08:26:01;97400;;;9.1;95.1
23253;BME280;11795;47.054;15.408;2022-11-15T08:28:02;97400;;;9.1;94.6
23253;BME280;11795;47.054;15.408;2022-11-15T08:30:00;97400;;;9.0;95.1
23253;BME280;11795;47.054;15.408;2022-11-15T08:32:00;97400;;;9.2;95.3
23253;BME280;11795;47.054;15.408;2022-11-15T08:34:00;97400;;;9.1;95.3
23253;BME280;11795;47.054;15.408;2022-11-15T08:36:01;97400;;;9.0;95.8
23253;BME280;11795;47.054;15.408;2022-11-15T08:38:00;97400;;;9.2;95.1
23253;BME280;11795;47.054;15.408;2022-11-15T08:40:00;97400;;;9.2;94.8
23253;BME280;11795;47.054;15.408;2022-11-15T08:42:00;97400;;;9.3;94.5
23253;BME280;11795;47.054;15.408;2022-11-15T08:44:00;97390;;;9.1;94.5
23253;BME280;11795;47.054;15.408;2022-11-15T08:46:00;97390;;;9.1;95.0
23253;BME280;11795;47.054;15.408;2022-11-15T08:48:01;97390;;;9.2;94.3
23253;BME280;11795;47.054;15.408;2022-11-15T08:50:00;97390;;;9.2;94.4
23253;BME280;11795;47.054;15.408;2022-11-15T08:52:00;97390;;;9.3;94.4
23253;BME280;11795;47.054;15.408;2022-11-15T08:54:00;97380;;;9.1;94.4
23253;BME280;11795;47.054;15.408;2022-11-15T08:56:00;97380;;;9.1;94.8
23253;BME280;11795;47.054;15.408;2022-11-15T08:58:00;97380;;;9.2;93.9
23253;BME280;11795;47.054;15.408;2022-11-15T09:00:01;97380;;;9.1;94.2
23253;BME280;11795;47.054;15.408;2022-11-15T09:02:00;97380;;;9.2;94.6
23253;BME280;11795;47.054;15.408;2022-11-15T09:04:00;97380;;;9.1;94.6
23253;BME280;11795;47.054;15.408;2022-11-15T09:06:00;97380;;;9.2;94.4
23253;BME280;11795;47.054;15.408;2022-11-15T09:08:00;97380;;;9.2;94.1
23253;BME280;11795;47.054;15.408;2022-11-15T09:10:00;97380;;;9.1;94.8
23253;BME280;11795;47.054;15.408;2022-11-15T09:12:00;97380;;;9.2;95.1
23253;BME280;11795;47.054;15.408;2022-11-15T09:14:00;97380;;;9.1;95.2
23253;BME280;11795;47.054;15.408;2022-11-15T09:16:01;97380;;;9.1;95.7
23253;BME280;11795;47.054;15.408;2022-11-15T09:18:00;97380;;;9.3;94.6
23253;BME280;11795;47.054;15.408;2022-11-15T09:20:00;97380;;;9.2;94.0
23253;BME280;11795;47.054;15.408;2022-11-15T09:22:00;97380;;;9.3;94.2
23253;BME280;11795;47.054;15.408;2022-11-15T09:24:00;97380;;;9.2;93.9
23253;BME280;11795;47.054;15.408;2022-11-15T09:26:02;97380;;;9.1;94.0
23253;BME280;11795;47.054;15.408;2022-11-15T09:28:00;97370;;;9.2;94.3
23253;BME280;11795;47.054;15.408;2022-11-15T09:30:00;97370;;;9.1;94.9
23253;BME280;11795;47.054;15.408;2022-11-15T09:32:00;97370;;;9.3;95.1
23253;BME280;11795;47.054;15.408;2022-11-15T09:34:00;97370;;;9.2;94.8
23253;BME280;11795;47.054;15.408;2022-11-15T09:36:02;97370;;;9.2;95.2
23253;BME280;11795;47.054;15.408;2022-11-15T09:38:00;97370;;;9.4;94.8
23253;BME280;11795;47.054;15.408;2022-11-15T09:40:00;97370;;;9.4;93.1
23253;BME280;11795;47.054;15.408;2022-11-15T09:42:10;97360;;;9.4;93.6
23253;BME280;11795;47.054;15.408;2022-11-15T09:44:11;97360;;;9.3;93.7
23253;BME280;11795;47.054;15.408;2022-11-15T09:46:11;97350;;;9.2;94.3
23253;BME280;11795;47.054;15.408;2022-11-15T09:48:15;97350;;;9.4;94.0
23253;BME280;11795;47.054;15.408;2022-11-15T09:50:08;97350;;;9.3;94.4
23253;BME280;11795;47.054;15.408;2022-11-15T09:52:00;97340;;;9.5;92.8
23253;BME280;11795;47.054;15.408;2022-11-15T09:54:04;97340;;;9.4;92.6
23253;BME280;11795;47.054;15.408;2022-11-15T09:56:02;97340;;;9.2;93.6
23253;BME280;11795;47.054;15.408;2022-11-15T09:58:07;97340;;;9.4;93.7
23253;BME280;11795;47.054;15.408;2022-11-15T10:00:09;97340;;;9.3;94.2
23253;BME280;11795;47.054;15.408;2022-11-15T10:02:12;97330;;;9.5;94.6
23253;BME280;11795;47.054;15.408;2022-11-15T10:04:00;97330;;;9.4;94.4
23253;BME280;11795;47.054;15.408;2022-11-15T10:06:02;97330;;;9.5;92.5
23253;BME280;11795;47.054;15.408;2022-11-15T10:08:03;97330;;;9.5;92.3
23253;BME280;11795;47.054;15.408;2022-11-15T10:10:08;97320;;;9.4;93.2
23253;BME280;11795;47.054;15.408;2022-11-15T10:12:00;97310;;;9.6;93.6
23253;BME280;11795;47.054;15.408;2022-11-15T10:14:02;97310;;;9.6;93.0
23253;BME280;11795;47.054;15.408;2022-11-15T10:16:07;97300;;;9.6;91.4
23253;BME280;11795;47.054;15.408;2022-11-15T10:18:09;97300;;;9.7;91.4
23253;BME280;11795;47.054;15.408;2022-11-15T10:20:10;97300;;;9.7;91.8
23253;BME280;11795;47.054;15.408;2022-11-15T10:22:11;97290;;;9.9;91.6
23253;BME280;11795;47.054;15.408;2022-11-15T10:24:01;97290;;;9.8;90.9
23253;BME280;11795;47.054;15.408;2022-11-15T10:26:00;97290;;;9.8;91.3
23253;BME280;11795;47.054;15.408;2022-11-15T10:28:06;97290;;;10.0;90.6
23253;BME280;11795;47.054;15.408;2022-11-15T10:30:00;97280;;;9.9;91.1
23253;BME280;11795;47.054;15.408;2022-11-15T10:32:00;97290;;;10.1;91.0
23253;BME280;11795;47.054;15.408;2022-11-15T10:34:11;97290;;;10.0;90.4
23253;BME280;11795;47.054;15.408;2022-11-15T10:36:14;97280;;;9.9;90.2
23253;BME280;11795;47.054;15.408;2022-11-15T10:38:05;97270;;;10.0;89.7
23253;BME280;11795;47.054;15.408;2022-11-15T10:40:05;97270;;;9.9;90.2
23253;BME280;11795;47.054;15.408;2022-11-15T10:42:18;97260;;;10.1;90.4
23253;BME280;11795;47.054;15.408;2022-11-15T10:44:08;97260;;;10.0;89.7
23253;BME280;11795;47.054;15.408;2022-11-15T10:46:16;97250;;;10.0;89.9
23253;BME280;11795;47.054;15.408;2022-11-15T10:50:04;97240;;;10.1;89.4
23253;BME280;11795;47.054;15.408;2022-11-15T10:52:02;97240;;;10.2;89.3
23253;BME280;11795;47.054;15.408;2022-11-15T10:54:00;97230;;;10.2;89.0
23253;BME280;11795;47.054;15.408;2022-11-15T10:56:03;97230;;;10.1;89.2
23253;BME280;11795;47.054;15.408;2022-11-15T10:58:05;97230;;;10.3;88.4
23253;BME280;11795;47.054;15.408;2022-11-15T11:00:03;97230;;;10.2;88.5
23253;BME280;11795;47.054;15.408;2022-11-15T11:02:00;97230;;;10.3;87.5
23253;BME280;11795;47.054;15.408;2022-11-15T11:04:02;97220;;;10.2;86.3
23253;BME280;11795;47.054;15.408;2022-11-15T11:06:04;97210;;;10.1;87.1
23253;BME280;11795;47.054;15.408;2022-11-15T11:08:04;97210;;;10.2;85.9
23253;BME280;11795;47.054;15.408;2022-11-15T11:10:03;97210;;;10.1;86.5
23253;BME280;11795;47.054;15.408;2022-11-15T11:12:02;97210;;;10.2;87.1
23253;BME280;11795;47.054;15.408;2022-11-15T11:14:11;97210;;;10.1;86.9
23253;BME280;11795;47.054;15.408;2022-11-15T11:16:15;97200;;;10.1;87.3
23253;BME280;11795;47.054;15.408;2022-11-15T11:18:06;97200;;;10.2;86.6
23253;BME280;11795;47.054;15.408;2022-11-15T11:20:04;97190;;;10.2;86.6
23253;BME280;11795;47.054;15.408;2022-11-15T11:22:05;97190;;;10.2;86.3
23253;BME280;11795;47.054;15.408;2022-11-15T11:24:04;97190;;;10.2;86.5